sensor_id;sensor_type;location;lat;lon;timestamp;P1;durP1;ratioP1;P2;durP2;ratioP2
6133;SDS011;3098;42.678;23.364;2023-06-10T00:01:45;11.90;;;6.82;;
6133;SDS011;3098;42.678;23.364;2023-06-10T00:04:14;12.07;;;7.38;;
6133;SDS011;3098;42.678;23.364;2023-06-10T00:06:42;11.07;;;6.10;;
6133;SDS011;3098;42.678;23.364;2023-06-10T00:09:09;14.05;;;6.43;;
6133;SDS011;3098;42.678;23.364;2023-06-10T00:11:36;11.85;;;7.00;;
6133;SDS011;3098;42.678;23.364;2023-06-10T00:14:04;14.65;;;6.05;;
6133;SDS011;3098;42.678;23.364;2023-06-10T00:16:31;11.32;;;6.50;;
6133;SDS011;3098;42.678;23.364;2023-06-10T00:18:59;15.48;;;7.22;;
6133;SDS011;3098;42.678;23.364;2023-06-10T00:21:27;12.10;;;6.78;;
6133;SDS011;3098;42.678;23.364;2023-06-10T00:23:55;11.20;;;6.72;;
6133;SDS011;3098;42.678;23.364;2023-06-10T00:26:22;11.15;;;6.75;;
6133;SDS011;3098;42.678;23.364;2023-06-10T00:28:51;13.07;;;6.70;;
6133;SDS011;3098;42.678;23.364;2023-06-10T00:31:18;16.40;;;7.53;;
6133;SDS011;3098;42.678;23.364;2023-06-10T00:33:45;15.13;;;7.70;;
6133;SDS011;3098;42.678;23.364;2023-06-10T00:36:12;12.82;;;7.78;;
6133;SDS011;3098;42.678;23.364;2023-06-10T00:38:40;10.38;;;6.50;;
6133;SDS011;3098;42.678;23.364;2023-06-10T00:41:07;11.50;;;7.53;;
6133;SDS011;3098;42.678;23.364;2023-06-10T00:43:33;15.57;;;7.85;;
6133;SDS011;3098;42.678;23.364;2023-06-10T00:46:00;12.18;;;7.68;;
6133;SDS011;3098;42.678;23.364;2023-06-10T00:48:27;11.00;;;6.88;;
6133;SDS011;3098;42.678;23.364;2023-06-10T00:50:55;17.40;;;7.60;;
6133;SDS011;3098;42.678;23.364;2023-06-10T00:53:22;14.27;;;7.25;;
6133;SDS011;3098;42.678;23.364;2023-06-10T00:55:51;14.90;;;7.72;;
6133;SDS011;3098;42.678;23.364;2023-06-10T00:58:19;11.70;;;7.50;;
6133;SDS011;3098;42.678;23.364;2023-06-10T01:00:46;11.38;;;7.32;;
6133;SDS011;3098;42.678;23.364;2023-06-10T01:03:12;11.10;;;6.60;;
6133;SDS011;3098;42.678;23.364;2023-06-10T01:05:42;10.77;;;6.88;;
6133;SDS011;3098;42.678;23.364;2023-06-10T01:08:12;9.35;;;6.53;;
6133;SDS011;3098;42.678;23.364;2023-06-10T01:10:47;13.82;;;7.85;;
6133;SDS011;3098;42.678;23.364;2023-06-10T01:13:19;15.50;;;7.43;;
6133;SDS011;3098;42.678;23.364;2023-06-10T01:15:49;13.32;;;7.68;;
6133;SDS011;3098;42.678;23.364;2023-06-10T01:18:16;13.45;;;8.75;;
6133;SDS011;3098;42.678;23.364;2023-06-10T01:20:44;11.13;;;7.53;;
6133;SDS011;3098;42.678;23.364;2023-06-10T01:23:13;14.82;;;8.00;;
6133;SDS011;3098;42.678;23.364;2023-06-10T01:25:41;18.05;;;8.25;;
6133;SDS011;3098;42.678;23.364;2023-06-10T01:28:12;12.48;;;7.18;;
6133;SDS011;3098;42.678;23.364;2023-06-10T01:30:43;13.38;;;7.70;;
6133;SDS011;3098;42.678;23.364;2023-06-10T01:33:15;11.18;;;7.20;;
6133;SDS011;3098;42.678;23.364;2023-06-10T01:35:45;10.82;;;7.63;;
6133;SDS011;3098;42.678;23.364;2023-06-10T01:38:15;16.60;;;7.70;;
6133;SDS011;3098;42.678;23.364;2023-06-10T01:40:43;12.77;;;7.80;;
6133;SDS011;3098;42.678;23.364;2023-06-10T01:43:12;14.60;;;8.18;;
6133;SDS011;3098;42.678;23.364;2023-06-10T01:45:39;11.57;;;7.07;;
6133;SDS011;3098;42.678;23.364;2023-06-10T01:48:06;14.18;;;7.35;;
6133;SDS011;3098;42.678;23.364;2023-06-10T01:50:33;12.13;;;7.45;;
6133;SDS011;3098;42.678;23.364;2023-06-10T01:53:00;14.45;;;7.75;;
6133;SDS011;3098;42.678;23.364;2023-06-10T01:55:28;19.42;;;8.77;;
6133;SDS011;3098;42.678;23.364;2023-06-10T01:57:55;14.70;;;8.05;;
6133;SDS011;3098;42.678;23.364;2023-06-10T02:00:22;13.63;;;7.07;;
6133;SDS011;3098;42.678;23.364;2023-06-10T02:02:49;12.95;;;7.47;;
6133;SDS011;3098;42.678;23.364;2023-06-10T02:05:16;11.55;;;7.38;;
6133;SDS011;3098;42.678;23.364;2023-06-10T02:07:43;12.65;;;7.82;;
6133;SDS011;3098;42.678;23.364;2023-06-10T02:10:10;17.20;;;8.10;;
6133;SDS011;3098;42.678;23.364;2023-06-10T02:12:38;15.10;;;7.88;;
6133;SDS011;3098;42.678;23.364;2023-06-10T02:15:05;15.23;;;9.00;;
6133;SDS011;3098;42.678;23.364;2023-06-10T02:17:32;13.80;;;8.13;;
6133;SDS011;3098;42.678;23.364;2023-06-10T02:19:59;13.98;;;8.10;;
6133;SDS011;3098;42.678;23.364;2023-06-10T02:22:31;15.10;;;8.60;;
6133;SDS011;3098;42.678;23.364;2023-06-10T02:24:58;17.42;;;8.88;;
6133;SDS011;3098;42.678;23.364;2023-06-10T02:27:25;16.90;;;8.27;;
6133;SDS011;3098;42.678;23.364;2023-06-10T02:29:53;18.83;;;9.80;;
6133;SDS011;3098;42.678;23.364;2023-06-10T02:32:20;13.00;;;7.95;;
6133;SDS011;3098;42.678;23.364;2023-06-10T02:34:49;13.73;;;7.93;;
6133;SDS011;3098;42.678;23.364;2023-06-10T02:37:16;15.23;;;8.30;;
6133;SDS011;3098;42.678;23.364;2023-06-10T02:39:43;14.98;;;8.68;;
6133;SDS011;3098;42.678;23.364;2023-06-10T02:42:10;14.02;;;8.73;;
6133;SDS011;3098;42.678;23.364;2023-06-10T02:44:37;15.50;;;8.45;;
6133;SDS011;3098;42.678;23.364;2023-06-10T02:47:06;12.98;;;7.72;;
6133;SDS011;3098;42.678;23.364;2023-06-10T02:49:33;16.27;;;7.95;;
6133;SDS011;3098;42.678;23.364;2023-06-10T02:52:00;16.63;;;7.97;;
6133;SDS011;3098;42.678;23.364;2023-06-10T02:54:27;12.93;;;8.15;;
6133;SDS011;3098;42.678;23.364;2023-06-10T02:56:54;14.63;;;8.35;;
6133;SDS011;3098;42.678;23.364;2023-06-10T02:59:21;22.08;;;8.88;;
6133;SDS011;3098;42.678;23.364;2023-06-10T03:01:48;14.70;;;8.63;;
6133;SDS011;3098;42.678;23.364;2023-06-10T03:04:16;16.55;;;8.30;;
6133;SDS011;3098;42.678;23.364;2023-06-10T03:06:43;16.23;;;8.20;;
6133;SDS011;3098;42.678;23.364;2023-06-10T03:09:11;16.08;;;8.82;;
6133;SDS011;3098;42.678;23.364;2023-06-10T03:11:38;13.77;;;8.50;;
6133;SDS011;3098;42.678;23.364;2023-06-10T03:14:05;12.55;;;7.75;;
6133;SDS011;3098;42.678;23.364;2023-06-10T03:16:32;17.35;;;8.30;;
6133;SDS011;3098;42.678;23.364;2023-06-10T03:18:58;14.77;;;7.82;;
6133;SDS011;3098;42.678;23.364;2023-06-10T03:21:27;19.33;;;8.73;;
6133;SDS011;3098;42.678;23.364;2023-06-10T03:23:54;13.98;;;8.60;;
6133;SDS011;3098;42.678;23.364;2023-06-10T03:26:20;16.85;;;8.40;;
6133;SDS011;3098;42.678;23.364;2023-06-10T03:28:47;14.90;;;8.23;;
6133;SDS011;3098;42.678;23.364;2023-06-10T03:31:14;17.58;;;8.70;;
6133;SDS011;3098;42.678;23.364;2023-06-10T03:33:42;15.23;;;8.82;;
6133;SDS011;3098;42.678;23.364;2023-06-10T03:36:09;13.52;;;7.93;;
6133;SDS011;3098;42.678;23.364;2023-06-10T03:38:37;16.67;;;8.45;;
6133;SDS011;3098;42.678;23.364;2023-06-10T03:41:04;13.93;;;8.02;;
6133;SDS011;3098;42.678;23.364;2023-06-10T03:43:31;16.42;;;8.80;;
6133;SDS011;3098;42.678;23.364;2023-06-10T03:45:58;12.38;;;7.70;;
6133;SDS011;3098;42.678;23.364;2023-06-10T03:48:25;17.08;;;6.95;;
6133;SDS011;3098;42.678;23.364;2023-06-10T03:50:52;12.18;;;7.22;;
6133;SDS011;3098;42.678;23.364;2023-06-10T03:53:19;11.23;;;6.20;;
6133;SDS011;3098;42.678;23.364;2023-06-10T03:55:48;12.55;;;6.07;;
6133;SDS011;3098;42.678;23.364;2023-06-10T03:58:15;12.55;;;6.82;;
6133;SDS011;3098;42.678;23.364;2023-06-10T04:00:43;15.18;;;7.55;;
6133;SDS011;3098;42.678;23.364;2023-06-10T04:03:10;10.32;;;6.57;;
6133;SDS011;3098;42.678;23.364;2023-06-10T04:05:39;16.67;;;7.50;;
6133;SDS011;3098;42.678;23.364;2023-06-10T04:08:07;16.52;;;7.93;;
6133;SDS011;3098;42.678;23.364;2023-06-10T04:10:34;13.30;;;7.18;;
6133;SDS011;3098;42.678;23.364;2023-06-10T04:13:03;10.75;;;5.43;;
6133;SDS011;3098;42.678;23.364;2023-06-10T04:15:30;9.38;;;6.13;;
6133;SDS011;3098;42.678;23.364;2023-06-10T04:17:58;10.85;;;6.20;;
6133;SDS011;3098;42.678;23.364;2023-06-10T04:20:26;11.85;;;6.97;;
6133;SDS011;3098;42.678;23.364;2023-06-10T04:22:53;11.45;;;6.47;;
6133;SDS011;3098;42.678;23.364;2023-06-10T04:25:20;11.88;;;7.03;;
6133;SDS011;3098;42.678;23.364;2023-06-10T04:27:47;11.50;;;6.88;;
6133;SDS011;3098;42.678;23.364;2023-06-10T04:30:15;10.75;;;7.15;;
6133;SDS011;3098;42.678;23.364;2023-06-10T04:32:42;13.48;;;7.45;;
6133;SDS011;3098;42.678;23.364;2023-06-10T04:35:11;12.25;;;6.85;;
6133;SDS011;3098;42.678;23.364;2023-06-10T04:37:39;10.13;;;6.60;;
6133;SDS011;3098;42.678;23.364;2023-06-10T04:40:06;11.50;;;6.25;;
6133;SDS011;3098;42.678;23.364;2023-06-10T04:42:34;12.98;;;6.47;;
6133;SDS011;3098;42.678;23.364;2023-06-10T04:45:01;15.10;;;6.90;;
6133;SDS011;3098;42.678;23.364;2023-06-10T04:47:31;12.63;;;6.55;;
6133;SDS011;3098;42.678;23.364;2023-06-10T04:49:59;13.57;;;7.22;;
6133;SDS011;3098;42.678;23.364;2023-06-10T04:52:26;13.80;;;7.43;;
6133;SDS011;3098;42.678;23.364;2023-06-10T04:54:53;16.75;;;6.75;;
6133;SDS011;3098;42.678;23.364;2023-06-10T04:57:20;14.90;;;7.57;;
6133;SDS011;3098;42.678;23.364;2023-06-10T04:59:47;13.02;;;6.90;;
6133;SDS011;3098;42.678;23.364;2023-06-10T05:02:14;13.55;;;7.40;;
6133;SDS011;3098;42.678;23.364;2023-06-10T05:04:42;12.85;;;7.50;;
6133;SDS011;3098;42.678;23.364;2023-06-10T05:07:09;11.63;;;7.70;;
6133;SDS011;3098;42.678;23.364;2023-06-10T05:09:36;10.68;;;7.05;;
6133;SDS011;3098;42.678;23.364;2023-06-10T05:12:03;11.45;;;7.00;;
6133;SDS011;3098;42.678;23.364;2023-06-10T05:14:31;12.57;;;6.85;;
6133;SDS011;3098;42.678;23.364;2023-06-10T05:16:58;11.82;;;7.40;;
6133;SDS011;3098;42.678;23.364;2023-06-10T05:19:25;19.98;;;6.72;;
6133;SDS011;3098;42.678;23.364;2023-06-10T05:21:53;11.77;;;6.82;;
6133;SDS011;3098;42.678;23.364;2023-06-10T05:24:21;15.27;;;7.22;;
6133;SDS011;3098;42.678;23.364;2023-06-10T05:26:48;18.52;;;7.53;;
6133;SDS011;3098;42.678;23.364;2023-06-10T05:29:15;11.88;;;7.47;;
6133;SDS011;3098;42.678;23.364;2023-06-10T05:31:42;18.88;;;9.57;;
6133;SDS011;3098;42.678;23.364;2023-06-10T05:34:09;13.43;;;6.30;;
6133;SDS011;3098;42.678;23.364;2023-06-10T05:36:35;16.75;;;8.32;;
6133;SDS011;3098;42.678;23.364;2023-06-10T05:39:04;14.15;;;7.82;;
6133;SDS011;3098;42.678;23.364;2023-06-10T05:41:31;16.00;;;8.32;;
6133;SDS011;3098;42.678;23.364;2023-06-10T05:43:58;16.50;;;8.68;;
6133;SDS011;3098;42.678;23.364;2023-06-10T05:46:25;16.98;;;8.63;;
6133;SDS011;3098;42.678;23.364;2023-06-10T05:48:52;14.38;;;9.23;;
6133;SDS011;3098;42.678;23.364;2023-06-10T05:51:18;17.30;;;9.20;;
6133;SDS011;3098;42.678;23.364;2023-06-10T05:53:45;15.15;;;9.20;;
6133;SDS011;3098;42.678;23.364;2023-06-10T05:56:14;15.82;;;9.02;;
6133;SDS011;3098;42.678;23.364;2023-06-10T05:58:40;14.65;;;8.02;;
6133;SDS011;3098;42.678;23.364;2023-06-10T06:01:07;16.70;;;9.75;;
6133;SDS011;3098;42.678;23.364;2023-06-10T06:03:34;14.88;;;8.30;;
6133;SDS011;3098;42.678;23.364;2023-06-10T06:06:02;15.07;;;9.15;;
6133;SDS011;3098;42.678;23.364;2023-06-10T06:08:29;14.68;;;9.00;;
6133;SDS011;3098;42.678;23.364;2023-06-10T06:10:56;16.10;;;7.93;;
6133;SDS011;3098;42.678;23.364;2023-06-10T06:13:24;17.30;;;10.13;;
6133;SDS011;3098;42.678;23.364;2023-06-10T06:15:51;11.38;;;7.72;;
6133;SDS011;3098;42.678;23.364;2023-06-10T06:18:18;12.82;;;8.35;;
6133;SDS011;3098;42.678;23.364;2023-06-10T06:20:45;21.13;;;8.63;;
6133;SDS011;3098;42.678;23.364;2023-06-10T06:23:12;15.38;;;8.75;;
6133;SDS011;3098;42.678;23.364;2023-06-10T06:25:39;15.10;;;8.13;;
6133;SDS011;3098;42.678;23.364;2023-06-10T06:28:06;14.40;;;7.88;;
6133;SDS011;3098;42.678;23.364;2023-06-10T06:30:35;17.70;;;7.68;;
6133;SDS011;3098;42.678;23.364;2023-06-10T06:33:02;14.48;;;8.02;;
6133;SDS011;3098;42.678;23.364;2023-06-10T06:35:30;16.15;;;7.57;;
6133;SDS011;3098;42.678;23.364;2023-06-10T06:37:57;11.50;;;7.25;;
6133;SDS011;3098;42.678;23.364;2023-06-10T06:40:25;9.90;;;6.80;;
6133;SDS011;3098;42.678;23.364;2023-06-10T06:42:52;12.02;;;7.13;;
6133;SDS011;3098;42.678;23.364;2023-06-10T06:45:18;12.95;;;7.32;;
6133;SDS011;3098;42.678;23.364;2023-06-10T06:47:47;13.77;;;7.97;;
6133;SDS011;3098;42.678;23.364;2023-06-10T06:50:14;10.93;;;6.90;;
6133;SDS011;3098;42.678;23.364;2023-06-10T06:52:41;17.27;;;7.30;;
6133;SDS011;3098;42.678;23.364;2023-06-10T06:55:08;10.05;;;6.75;;
6133;SDS011;3098;42.678;23.364;2023-06-10T06:57:35;13.82;;;7.05;;
6133;SDS011;3098;42.678;23.364;2023-06-10T07:00:03;15.93;;;7.07;;
6133;SDS011;3098;42.678;23.364;2023-06-10T07:02:31;9.40;;;6.03;;
6133;SDS011;3098;42.678;23.364;2023-06-10T07:04:59;9.77;;;6.38;;
6133;SDS011;3098;42.678;23.364;2023-06-10T07:07:27;7.18;;;4.72;;
6133;SDS011;3098;42.678;23.364;2023-06-10T07:09:54;9.75;;;5.50;;
6133;SDS011;3098;42.678;23.364;2023-06-10T07:12:21;8.35;;;4.97;;
6133;SDS011;3098;42.678;23.364;2023-06-10T07:14:49;9.02;;;5.65;;
6133;SDS011;3098;42.678;23.364;2023-06-10T07:17:16;7.07;;;4.15;;
6133;SDS011;3098;42.678;23.364;2023-06-10T07:19:43;12.38;;;7.32;;
6133;SDS011;3098;42.678;23.364;2023-06-10T07:22:12;8.90;;;4.57;;
6133;SDS011;3098;42.678;23.364;2023-06-10T07:24:40;8.68;;;4.82;;
6133;SDS011;3098;42.678;23.364;2023-06-10T07:27:08;8.40;;;4.97;;
6133;SDS011;3098;42.678;23.364;2023-06-10T07:29:35;9.40;;;5.53;;
6133;SDS011;3098;42.678;23.364;2023-06-10T07:32:02;6.82;;;4.43;;
6133;SDS011;3098;42.678;23.364;2023-06-10T07:34:30;8.57;;;4.45;;
6133;SDS011;3098;42.678;23.364;2023-06-10T07:36:57;9.40;;;4.95;;
6133;SDS011;3098;42.678;23.364;2023-06-10T07:39:25;8.35;;;4.68;;
6133;SDS011;3098;42.678;23.364;2023-06-10T07:41:52;8.57;;;4.78;;
6133;SDS011;3098;42.678;23.364;2023-06-10T07:44:22;18.27;;;5.80;;
6133;SDS011;3098;42.678;23.364;2023-06-10T07:46:49;7.68;;;4.53;;
6133;SDS011;3098;42.678;23.364;2023-06-10T07:49:16;7.88;;;4.13;;
6133;SDS011;3098;42.678;23.364;2023-06-10T07:51:43;9.13;;;4.50;;
6133;SDS011;3098;42.678;23.364;2023-06-10T07:54:10;9.13;;;3.97;;
6133;SDS011;3098;42.678;23.364;2023-06-10T07:56:39;5.30;;;3.60;;
6133;SDS011;3098;42.678;23.364;2023-06-10T07:59:06;7.55;;;4.15;;
6133;SDS011;3098;42.678;23.364;2023-06-10T08:01:34;5.68;;;3.90;;
6133;SDS011;3098;42.678;23.364;2023-06-10T08:04:03;7.38;;;3.50;;
6133;SDS011;3098;42.678;23.364;2023-06-10T08:06:30;5.65;;;3.38;;
6133;SDS011;3098;42.678;23.364;2023-06-10T08:08:57;6.05;;;3.25;;
6133;SDS011;3098;42.678;23.364;2023-06-10T08:11:25;5.05;;;3.30;;
6133;SDS011;3098;42.678;23.364;2023-06-10T08:13:54;6.53;;;2.97;;
6133;SDS011;3098;42.678;23.364;2023-06-10T08:16:21;5.50;;;3.33;;
6133;SDS011;3098;42.678;23.364;2023-06-10T08:18:48;4.28;;;3.17;;
6133;SDS011;3098;42.678;23.364;2023-06-10T08:21:16;5.43;;;2.97;;
6133;SDS011;3098;42.678;23.364;2023-06-10T08:23:43;7.10;;;3.47;;
6133;SDS011;3098;42.678;23.364;2023-06-10T08:26:10;12.95;;;3.55;;
6133;SDS011;3098;42.678;23.364;2023-06-10T08:28:37;6.28;;;3.70;;
6133;SDS011;3098;42.678;23.364;2023-06-10T08:31:05;5.25;;;3.53;;
6133;SDS011;3098;42.678;23.364;2023-06-10T08:33:32;7.25;;;3.28;;
6133;SDS011;3098;42.678;23.364;2023-06-10T08:35:59;5.18;;;3.15;;
6133;SDS011;3098;42.678;23.364;2023-06-10T08:38:26;5.22;;;2.58;;
6133;SDS011;3098;42.678;23.364;2023-06-10T08:40:54;3.75;;;3.10;;
6133;SDS011;3098;42.678;23.364;2023-06-10T08:43:26;5.20;;;3.15;;
6133;SDS011;3098;42.678;23.364;2023-06-10T08:45:59;7.38;;;3.50;;
6133;SDS011;3098;42.678;23.364;2023-06-10T08:48:30;7.43;;;3.40;;
6133;SDS011;3098;42.678;23.364;2023-06-10T08:50:59;6.65;;;4.68;;
6133;SDS011;3098;42.678;23.364;2023-06-10T08:53:27;6.63;;;3.63;;
6133;SDS011;3098;42.678;23.364;2023-06-10T08:55:58;4.25;;;3.20;;
6133;SDS011;3098;42.678;23.364;2023-06-10T08:58:27;2.83;;;2.22;;
6133;SDS011;3098;42.678;23.364;2023-06-10T09:00:54;9.98;;;2.90;;
6133;SDS011;3098;42.678;23.364;2023-06-10T09:03:22;4.65;;;3.03;;
6133;SDS011;3098;42.678;23.364;2023-06-10T09:05:52;7.05;;;4.30;;
6133;SDS011;3098;42.678;23.364;2023-06-10T09:08:20;4.18;;;3.00;;
6133;SDS011;3098;42.678;23.364;2023-06-10T09:10:47;3.70;;;3.10;;
6133;SDS011;3098;42.678;23.364;2023-06-10T09:13:14;4.25;;;3.00;;
6133;SDS011;3098;42.678;23.364;2023-06-10T09:15:43;4.40;;;3.28;;
6133;SDS011;3098;42.678;23.364;2023-06-10T09:18:11;3.42;;;2.83;;
6133;SDS011;3098;42.678;23.364;2023-06-10T09:20:38;5.72;;;3.38;;
6133;SDS011;3098;42.678;23.364;2023-06-10T09:23:07;4.80;;;2.72;;
6133;SDS011;3098;42.678;23.364;2023-06-10T09:25:35;9.52;;;3.03;;
6133;SDS011;3098;42.678;23.364;2023-06-10T09:28:03;6.57;;;2.92;;
6133;SDS011;3098;42.678;23.364;2023-06-10T09:30:31;3.55;;;2.65;;
6133;SDS011;3098;42.678;23.364;2023-06-10T09:33:00;6.65;;;3.05;;
6133;SDS011;3098;42.678;23.364;2023-06-10T09:35:28;3.55;;;2.55;;
6133;SDS011;3098;42.678;23.364;2023-06-10T09:37:57;4.32;;;3.05;;
6133;SDS011;3098;42.678;23.364;2023-06-10T09:40:26;4.25;;;3.05;;
6133;SDS011;3098;42.678;23.364;2023-06-10T09:42:54;5.50;;;3.38;;
6133;SDS011;3098;42.678;23.364;2023-06-10T09:45:22;4.35;;;2.88;;
6133;SDS011;3098;42.678;23.364;2023-06-10T09:47:53;3.38;;;2.53;;
6133;SDS011;3098;42.678;23.364;2023-06-10T09:50:20;5.63;;;2.97;;
6133;SDS011;3098;42.678;23.364;2023-06-10T09:52:48;4.00;;;2.90;;
6133;SDS011;3098;42.678;23.364;2023-06-10T09:55:15;4.32;;;3.13;;
6133;SDS011;3098;42.678;23.364;2023-06-10T09:57:44;5.55;;;3.30;;
6133;SDS011;3098;42.678;23.364;2023-06-10T10:00:15;4.15;;;2.90;;
6133;SDS011;3098;42.678;23.364;2023-06-10T10:02:46;4.10;;;3.15;;
6133;SDS011;3098;42.678;23.364;2023-06-10T10:05:14;3.33;;;2.92;;
6133;SDS011;3098;42.678;23.364;2023-06-10T10:07:42;2.85;;;2.22;;
6133;SDS011;3098;42.678;23.364;2023-06-10T10:10:10;3.45;;;2.70;;
6133;SDS011;3098;42.678;23.364;2023-06-10T10:12:38;4.20;;;2.95;;
6133;SDS011;3098;42.678;23.364;2023-06-10T10:15:07;6.60;;;3.47;;
6133;SDS011;3098;42.678;23.364;2023-06-10T10:17:37;4.30;;;2.88;;
6133;SDS011;3098;42.678;23.364;2023-06-10T10:20:08;4.22;;;3.03;;
6133;SDS011;3098;42.678;23.364;2023-06-10T10:22:39;5.88;;;2.70;;
6133;SDS011;3098;42.678;23.364;2023-06-10T10:25:10;7.45;;;3.95;;
6133;SDS011;3098;42.678;23.364;2023-06-10T10:27:40;6.00;;;3.67;;
6133;SDS011;3098;42.678;23.364;2023-06-10T10:30:12;5.95;;;3.92;;
6133;SDS011;3098;42.678;23.364;2023-06-10T10:32:43;6.30;;;3.88;;
6133;SDS011;3098;42.678;23.364;2023-06-10T10:35:19;6.97;;;3.42;;
6133;SDS011;3098;42.678;23.364;2023-06-10T10:37:48;4.47;;;3.08;;
6133;SDS011;3098;42.678;23.364;2023-06-10T10:40:16;3.40;;;2.75;;
6133;SDS011;3098;42.678;23.364;2023-06-10T10:42:43;5.10;;;3.10;;
6133;SDS011;3098;42.678;23.364;2023-06-10T10:45:12;8.05;;;3.03;;
6133;SDS011;3098;42.678;23.364;2023-06-10T10:47:39;7.38;;;3.90;;
6133;SDS011;3098;42.678;23.364;2023-06-10T10:50:14;7.03;;;3.70;;
6133;SDS011;3098;42.678;23.364;2023-06-10T10:52:52;5.30;;;3.17;;
6133;SDS011;3098;42.678;23.364;2023-06-10T10:55:21;5.53;;;3.55;;
6133;SDS011;3098;42.678;23.364;2023-06-10T10:57:54;4.47;;;3.22;;
6133;SDS011;3098;42.678;23.364;2023-06-10T11:00:30;4.78;;;3.53;;
6133;SDS011;3098;42.678;23.364;2023-06-10T11:02:58;4.13;;;3.30;;
6133;SDS011;3098;42.678;23.364;2023-06-10T11:05:36;6.50;;;3.97;;
6133;SDS011;3098;42.678;23.364;2023-06-10T11:08:04;4.93;;;3.92;;
6133;SDS011;3098;42.678;23.364;2023-06-10T11:10:33;5.32;;;3.13;;
6133;SDS011;3098;42.678;23.364;2023-06-10T11:13:05;5.07;;;3.28;;
6133;SDS011;3098;42.678;23.364;2023-06-10T11:15:37;4.60;;;3.42;;
6133;SDS011;3098;42.678;23.364;2023-06-10T11:18:10;4.80;;;3.40;;
6133;SDS011;3098;42.678;23.364;2023-06-10T11:23:32;6.43;;;3.75;;
6133;SDS011;3098;42.678;23.364;2023-06-10T11:26:09;4.15;;;2.95;;
6133;SDS011;3098;42.678;23.364;2023-06-10T11:28:38;4.68;;;3.25;;
6133;SDS011;3098;42.678;23.364;2023-06-10T11:31:07;6.07;;;3.15;;
6133;SDS011;3098;42.678;23.364;2023-06-10T11:33:36;5.57;;;3.40;;
6133;SDS011;3098;42.678;23.364;2023-06-10T11:36:06;5.70;;;4.03;;
6133;SDS011;3098;42.678;23.364;2023-06-10T11:38:33;4.32;;;3.30;;
6133;SDS011;3098;42.678;23.364;2023-06-10T11:41:01;6.05;;;3.55;;
6133;SDS011;3098;42.678;23.364;2023-06-10T11:43:28;4.20;;;3.22;;
6133;SDS011;3098;42.678;23.364;2023-06-10T11:45:56;5.63;;;3.53;;
6133;SDS011;3098;42.678;23.364;2023-06-10T11:48:24;5.53;;;3.25;;
6133;SDS011;3098;42.678;23.364;2023-06-10T11:50:53;4.90;;;3.30;;
6133;SDS011;3098;42.678;23.364;2023-06-10T11:53:20;7.55;;;3.10;;
6133;SDS011;3098;42.678;23.364;2023-06-10T11:55:49;4.85;;;3.33;;
6133;SDS011;3098;42.678;23.364;2023-06-10T11:58:17;5.25;;;3.55;;
6133;SDS011;3098;42.678;23.364;2023-06-10T12:00:45;6.85;;;4.05;;
6133;SDS011;3098;42.678;23.364;2023-06-10T12:03:13;4.10;;;3.20;;
6133;SDS011;3098;42.678;23.364;2023-06-10T12:05:42;3.42;;;2.78;;
6133;SDS011;3098;42.678;23.364;2023-06-10T12:08:23;5.60;;;2.85;;
6133;SDS011;3098;42.678;23.364;2023-06-10T12:10:51;4.45;;;3.10;;
6133;SDS011;3098;42.678;23.364;2023-06-10T12:13:18;4.18;;;2.67;;
6133;SDS011;3098;42.678;23.364;2023-06-10T12:15:45;4.55;;;2.80;;
6133;SDS011;3098;42.678;23.364;2023-06-10T12:18:15;3.97;;;2.58;;
6133;SDS011;3098;42.678;23.364;2023-06-10T12:20:44;7.38;;;3.03;;
6133;SDS011;3098;42.678;23.364;2023-06-10T12:23:12;4.95;;;2.75;;
6133;SDS011;3098;42.678;23.364;2023-06-10T12:25:42;3.80;;;2.60;;
6133;SDS011;3098;42.678;23.364;2023-06-10T12:28:20;5.13;;;2.90;;
6133;SDS011;3098;42.678;23.364;2023-06-10T12:30:47;7.07;;;3.38;;
6133;SDS011;3098;42.678;23.364;2023-06-10T12:33:17;3.45;;;2.63;;
6133;SDS011;3098;42.678;23.364;2023-06-10T12:35:49;4.90;;;2.85;;
6133;SDS011;3098;42.678;23.364;2023-06-10T12:38:21;4.95;;;3.05;;
6133;SDS011;3098;42.678;23.364;2023-06-10T12:40:49;3.22;;;2.75;;
6133;SDS011;3098;42.678;23.364;2023-06-10T12:43:19;3.47;;;2.50;;
6133;SDS011;3098;42.678;23.364;2023-06-10T12:45:46;3.97;;;2.72;;
6133;SDS011;3098;42.678;23.364;2023-06-10T12:48:17;5.13;;;3.25;;
6133;SDS011;3098;42.678;23.364;2023-06-10T12:50:50;8.10;;;3.00;;
6133;SDS011;3098;42.678;23.364;2023-06-10T12:53:19;5.28;;;2.78;;
6133;SDS011;3098;42.678;23.364;2023-06-10T12:55:48;4.85;;;3.25;;
6133;SDS011;3098;42.678;23.364;2023-06-10T12:58:15;4.47;;;2.80;;
6133;SDS011;3098;42.678;23.364;2023-06-10T13:00:42;4.30;;;2.78;;
6133;SDS011;3098;42.678;23.364;2023-06-10T13:03:09;4.28;;;2.63;;
6133;SDS011;3098;42.678;23.364;2023-06-10T13:05:36;4.10;;;3.38;;
6133;SDS011;3098;42.678;23.364;2023-06-10T13:08:05;6.00;;;2.92;;
6133;SDS011;3098;42.678;23.364;2023-06-10T13:10:35;3.35;;;2.85;;
6133;SDS011;3098;42.678;23.364;2023-06-10T13:13:02;4.85;;;2.80;;
6133;SDS011;3098;42.678;23.364;2023-06-10T13:15:31;4.93;;;3.05;;
6133;SDS011;3098;42.678;23.364;2023-06-10T13:18:01;2.75;;;2.33;;
6133;SDS011;3098;42.678;23.364;2023-06-10T13:20:28;3.70;;;2.80;;
6133;SDS011;3098;42.678;23.364;2023-06-10T13:22:56;3.53;;;2.60;;
6133;SDS011;3098;42.678;23.364;2023-06-10T13:25:24;3.80;;;2.53;;
6133;SDS011;3098;42.678;23.364;2023-06-10T13:27:51;4.47;;;2.83;;
6133;SDS011;3098;42.678;23.364;2023-06-10T13:30:18;8.00;;;3.00;;
6133;SDS011;3098;42.678;23.364;2023-06-10T13:32:45;7.45;;;3.05;;
6133;SDS011;3098;42.678;23.364;2023-06-10T13:35:12;7.50;;;4.00;;
6133;SDS011;3098;42.678;23.364;2023-06-10T13:37:39;4.15;;;3.05;;
6133;SDS011;3098;42.678;23.364;2023-06-10T13:40:06;8.20;;;3.47;;
6133;SDS011;3098;42.678;23.364;2023-06-10T13:42:36;5.13;;;3.30;;
6133;SDS011;3098;42.678;23.364;2023-06-10T13:45:03;5.97;;;3.40;;
6133;SDS011;3098;42.678;23.364;2023-06-10T13:47:31;5.80;;;3.20;;
6133;SDS011;3098;42.678;23.364;2023-06-10T13:49:58;7.32;;;3.60;;
6133;SDS011;3098;42.678;23.364;2023-06-10T13:52:24;8.63;;;3.90;;
6133;SDS011;3098;42.678;23.364;2023-06-10T13:54:51;10.23;;;3.80;;
6133;SDS011;3098;42.678;23.364;2023-06-10T13:57:18;8.27;;;3.60;;
6133;SDS011;3098;42.678;23.364;2023-06-10T13:59:46;7.35;;;3.13;;
6133;SDS011;3098;42.678;23.364;2023-06-10T14:02:13;4.32;;;2.95;;
6133;SDS011;3098;42.678;23.364;2023-06-10T14:04:40;9.07;;;3.92;;
6133;SDS011;3098;42.678;23.364;2023-06-10T14:07:07;4.15;;;3.28;;
6133;SDS011;3098;42.678;23.364;2023-06-10T14:09:34;23.52;;;4.13;;
6133;SDS011;3098;42.678;23.364;2023-06-10T14:12:01;5.22;;;3.60;;
6133;SDS011;3098;42.678;23.364;2023-06-10T14:14:28;9.25;;;3.58;;
6133;SDS011;3098;42.678;23.364;2023-06-10T14:16:56;6.82;;;3.60;;
6133;SDS011;3098;42.678;23.364;2023-06-10T14:19:23;5.57;;;3.83;;
6133;SDS011;3098;42.678;23.364;2023-06-10T14:21:50;6.45;;;3.92;;
6133;SDS011;3098;42.678;23.364;2023-06-10T14:24:18;13.10;;;3.63;;
6133;SDS011;3098;42.678;23.364;2023-06-10T14:26:46;8.60;;;4.32;;
6133;SDS011;3098;42.678;23.364;2023-06-10T14:29:13;4.75;;;2.97;;
6133;SDS011;3098;42.678;23.364;2023-06-10T14:31:40;5.90;;;3.30;;
6133;SDS011;3098;42.678;23.364;2023-06-10T14:34:08;5.68;;;3.92;;
6133;SDS011;3098;42.678;23.364;2023-06-10T14:36:35;9.40;;;3.67;;
6133;SDS011;3098;42.678;23.364;2023-06-10T14:39:03;4.90;;;3.20;;
6133;SDS011;3098;42.678;23.364;2023-06-10T14:41:30;5.50;;;3.55;;
6133;SDS011;3098;42.678;23.364;2023-06-10T14:43:57;4.85;;;3.47;;
6133;SDS011;3098;42.678;23.364;2023-06-10T14:46:24;6.50;;;3.85;;
6133;SDS011;3098;42.678;23.364;2023-06-10T14:48:51;9.68;;;4.25;;
6133;SDS011;3098;42.678;23.364;2023-06-10T14:51:20;6.13;;;3.78;;
6133;SDS011;3098;42.678;23.364;2023-06-10T14:53:47;9.73;;;5.15;;
6133;SDS011;3098;42.678;23.364;2023-06-10T14:56:14;4.10;;;3.08;;
6133;SDS011;3098;42.678;23.364;2023-06-10T14:58:41;10.95;;;4.85;;
6133;SDS011;3098;42.678;23.364;2023-06-10T15:01:08;10.98;;;5.97;;
6133;SDS011;3098;42.678;23.364;2023-06-10T15:03:35;6.68;;;4.55;;